sensor_id;sensor_type;location;lat;lon;timestamp;pressure;altitude;pressure_sealevel;temperature;humidity
27144;BME280;14672;50.250;8.312;2023-11-21T00:01:19;98102.59;;;12.49;73.62
27144;BME280;14672;50.250;8.312;2023-11-21T00:03:44;98108.09;;;12.52;73.39
27144;BME280;14672;50.250;8.312;2023-11-21T00:06:10;98108.97;;;12.44;73.95
27144;BME280;14672;50.250;8.312;2023-11-21T00:08:37;98110.34;;;12.48;73.76
27144;BME280;14672;50.250;8.312;2023-11-21T00:11:03;98108.56;;;12.51;73.19
27144;BME280;14672;50.250;8.312;2023-11-21T00:13:32;98110.81;;;12.47;73.39
27144;BME280;14672;50.250;8.312;2023-11-21T00:15:58;98118.78;;;12.43;73.62
27144;BME280;14672;50.250;8.312;2023-11-21T00:18:27;98114.38;;;12.42;73.56
27144;BME280;14672;50.250;8.312;2023-11-21T00:20:53;98109.63;;;12.39;73.82
27144;BME280;14672;50.250;8.312;2023-11-21T00:23:18;98109.03;;;12.35;74.21
27144;BME280;14672;50.250;8.312;2023-11-21T00:25:44;98121.34;;;12.41;74.09
27144;BME280;14672;50.250;8.312;2023-11-21T00:28:10;98114.44;;;12.33;73.85
27144;BME280;14672;50.250;8.312;2023-11-21T00:30:35;98116.03;;;12.34;74.49
27144;BME280;14672;50.250;8.312;2023-11-21T00:33:01;98118.50;;;12.41;74.25
27144;BME280;14672;50.250;8.312;2023-11-21T00:35:26;98112.88;;;12.32;74.85
27144;BME280;14672;50.250;8.312;2023-11-21T00:37:52;98119.16;;;12.36;74.33
27144;BME280;14672;50.250;8.312;2023-11-21T00:40:18;98114.44;;;12.33;74.41
27144;BME280;14672;50.250;8.312;2023-11-21T00:42:47;98117.22;;;12.42;74.58
27144;BME280;14672;50.250;8.312;2023-11-21T00:45:13;98112.09;;;12.31;74.79
27144;BME280;14672;50.250;8.312;2023-11-21T00:47:39;98112.09;;;12.31;74.38
27144;BME280;14672;50.250;8.312;2023-11-21T00:50:06;98110.50;;;12.30;74.65
27144;BME280;14672;50.250;8.312;2023-11-21T00:52:32;98120.94;;;12.33;75.14
27144;BME280;14672;50.250;8.312;2023-11-21T00:54:58;98110.34;;;12.34;74.52
27144;BME280;14672;50.250;8.312;2023-11-21T00:57:28;98117.31;;;12.33;74.82
27144;BME280;14672;50.250;8.312;2023-11-21T00:59:55;98117.00;;;12.31;74.50
27144;BME280;14672;50.250;8.312;2023-11-21T01:02:23;98116.03;;;12.34;74.51
27144;BME280;14672;50.250;8.312;2023-11-21T01:04:49;98117.69;;;12.26;74.58
27144;BME280;14672;50.250;8.312;2023-11-21T01:07:15;98132.72;;;12.26;74.70
27144;BME280;14672;50.250;8.312;2023-11-21T01:09:40;98130.34;;;12.24;75.17
27144;BME280;14672;50.250;8.312;2023-11-21T01:12:06;98123.56;;;12.22;74.74
27144;BME280;14672;50.250;8.312;2023-11-21T01:14:32;98131.34;;;12.21;75.24
27144;BME280;14672;50.250;8.312;2023-11-21T01:16:58;98134.97;;;12.22;74.92
27144;BME280;14672;50.250;8.312;2023-11-21T01:19:24;98139.75;;;12.16;75.43
27144;BME280;14672;50.250;8.312;2023-11-21T01:21:49;98132.41;;;12.24;75.04
27144;BME280;14672;50.250;8.312;2023-11-21T01:24:15;98146.25;;;12.16;75.13
27144;BME280;14672;50.250;8.312;2023-11-21T01:26:41;98138.78;;;12.19;75.72
27144;BME280;14672;50.250;8.312;2023-11-21T01:29:06;98140.34;;;12.20;75.23
27144;BME280;14672;50.250;8.312;2023-11-21T01:31:32;98148.09;;;12.19;75.08
27144;BME280;14672;50.250;8.312;2023-11-21T01:33:58;98147.31;;;12.19;74.74
27144;BME280;14672;50.250;8.312;2023-11-21T01:36:33;98149.69;;;12.20;75.10
27144;BME280;14672;50.250;8.312;2023-11-21T01:38:59;98153.78;;;12.19;74.98
27144;BME280;14672;50.250;8.312;2023-11-21T01:41:27;98153.19;;;12.15;74.94
27144;BME280;14672;50.250;8.312;2023-11-21T01:43:54;98154.72;;;12.26;74.77
27144;BME280;14672;50.250;8.312;2023-11-21T01:46:21;98156.47;;;12.23;74.67
27144;BME280;14672;50.250;8.312;2023-11-21T01:48:51;98156.66;;;12.34;74.69
27144;BME280;14672;50.250;8.312;2023-11-21T01:51:16;98161.34;;;12.22;74.31
27144;BME280;14672;50.250;8.312;2023-11-21T01:53:44;98159.09;;;12.12;75.09
27144;BME280;14672;50.250;8.312;2023-11-21T01:56:12;98166.78;;;12.20;74.45
27144;BME280;14672;50.250;8.312;2023-11-21T01:58:39;98171.88;;;12.16;74.96
27144;BME280;14672;50.250;8.312;2023-11-21T02:01:05;98174.72;;;12.16;74.68
27144;BME280;14672;50.250;8.312;2023-11-21T02:03:31;98171.56;;;12.14;75.60
27144;BME280;14672;50.250;8.312;2023-11-21T02:05:57;98176.28;;;12.17;74.84
27144;BME280;14672;50.250;8.312;2023-11-21T02:08:22;98177.56;;;12.16;75.34
27144;BME280;14672;50.250;8.312;2023-11-21T02:10:48;98168.81;;;12.20;74.45
27144;BME280;14672;50.250;8.312;2023-11-21T02:13:14;98174.09;;;12.12;74.83
27144;BME280;14672;50.250;8.312;2023-11-21T02:15:40;98172.34;;;12.15;74.27
27144;BME280;14672;50.250;8.312;2023-11-21T02:18:06;98168.88;;;12.11;74.39
27144;BME280;14672;50.250;8.312;2023-11-21T02:20:32;98172.16;;;12.18;74.65
27144;BME280;14672;50.250;8.312;2023-11-21T02:23:00;98159.56;;;12.10;74.62
27144;BME280;14672;50.250;8.312;2023-11-21T02:25:29;98169.00;;;12.16;74.27
27144;BME280;14672;50.250;8.312;2023-11-21T02:28:01;98176.28;;;12.17;74.38
27144;BME280;14672;50.250;8.312;2023-11-21T02:30:28;98174.34;;;12.23;73.67
27144;BME280;14672;50.250;8.312;2023-11-21T02:32:55;98174.84;;;12.22;73.54
27144;BME280;14672;50.250;8.312;2023-11-21T02:35:22;98174.34;;;12.23;73.47
27144;BME280;14672;50.250;8.312;2023-11-21T02:37:48;98174.41;;;12.14;73.73
27144;BME280;14672;50.250;8.312;2023-11-21T02:40:14;98176.91;;;12.21;73.92
27144;BME280;14672;50.250;8.312;2023-11-21T02:42:47;98177.09;;;12.18;73.65
27144;BME280;14672;50.250;8.312;2023-11-21T02:45:14;98174.91;;;12.13;74.19
27144;BME280;14672;50.250;8.312;2023-11-21T02:47:43;98179.50;;;12.10;74.65
27144;BME280;14672;50.250;8.312;2023-11-21T02:50:09;98180.00;;;12.09;74.86
27144;BME280;14672;50.250;8.312;2023-11-21T02:52:35;98191.47;;;12.14;74.81
27144;BME280;14672;50.250;8.312;2023-11-21T02:55:02;98184.72;;;12.12;74.19
27144;BME280;14672;50.250;8.312;2023-11-21T02:57:28;98188.03;;;12.10;74.68
27144;BME280;14672;50.250;8.312;2023-11-21T02:59:55;98188.63;;;12.14;74.69
27144;BME280;14672;50.250;8.312;2023-11-21T03:02:21;98183.19;;;12.26;74.15
27144;BME280;14672;50.250;8.312;2023-11-21T03:04:50;98183.06;;;12.20;74.15
27144;BME280;14672;50.250;8.312;2023-11-21T03:07:19;98179.81;;;12.12;74.10
27144;BME280;14672;50.250;8.312;2023-11-21T03:09:48;98181.91;;;12.27;74.11
27144;BME280;14672;50.250;8.312;2023-11-21T03:12:14;98176.09;;;12.21;73.56
27144;BME280;14672;50.250;8.312;2023-11-21T03:14:40;98186.63;;;12.30;73.83
27144;BME280;14672;50.250;8.312;2023-11-21T03:17:05;98184.75;;;12.27;73.66
27144;BME280;14672;50.250;8.312;2023-11-21T03:19:32;98186.69;;;12.20;74.36
27144;BME280;14672;50.250;8.312;2023-11-21T03:21:57;98190.25;;;12.30;74.10
27144;BME280;14672;50.250;8.312;2023-11-21T03:24:24;98189.69;;;12.26;73.77
27144;BME280;14672;50.250;8.312;2023-11-21T03:26:50;98197.63;;;12.22;74.23
27144;BME280;14672;50.250;8.312;2023-11-21T03:29:16;98196.44;;;12.29;73.73
27144;BME280;14672;50.250;8.312;2023-11-21T03:31:42;98209.03;;;12.37;73.33
27144;BME280;14672;50.250;8.312;2023-11-21T03:34:16;98204.00;;;12.32;74.02
27144;BME280;14672;50.250;8.312;2023-11-21T03:36:42;98213.81;;;12.31;73.30
27144;BME280;14672;50.250;8.312;2023-11-21T03:39:07;98211.34;;;12.23;73.64
27144;BME280;14672;50.250;8.312;2023-11-21T03:41:33;98210.31;;;12.36;73.28
27144;BME280;14672;50.250;8.312;2023-11-21T03:43:59;98211.94;;;12.28;73.30
27144;BME280;14672;50.250;8.312;2023-11-21T03:46:25;98210.09;;;12.24;73.83
27144;BME280;14672;50.250;8.312;2023-11-21T03:48:51;98223.84;;;12.26;73.72
27144;BME280;14672;50.250;8.312;2023-11-21T03:51:17;98224.78;;;12.23;73.77
27144;BME280;14672;50.250;8.312;2023-11-21T03:53:42;98228.44;;;12.23;73.79
27144;BME280;14672;50.250;8.312;2023-11-21T03:56:09;98230.31;;;12.27;73.62
27144;BME280;14672;50.250;8.312;2023-11-21T03:58:35;98230.13;;;12.30;73.98
27144;BME280;14672;50.250;8.312;2023-11-21T04:01:00;98230.50;;;12.23;74.08
27144;BME280;14672;50.250;8.312;2023-11-21T04:03:27;98235.06;;;12.30;73.75
27144;BME280;14672;50.250;8.312;2023-11-21T04:05:52;98248.97;;;12.28;73.61
27144;BME280;14672;50.250;8.312;2023-11-21T04:08:18;98241.88;;;12.23;73.49
27144;BME280;14672;50.250;8.312;2023-11-21T04:10:44;98239.16;;;12.29;73.91
27144;BME280;14672;50.250;8.312;2023-11-21T04:13:10;98234.72;;;12.28;74.22
27144;BME280;14672;50.250;8.312;2023-11-21T04:15:36;98239.53;;;12.21;73.85
27144;BME280;14672;50.250;8.312;2023-11-21T04:18:01;98245.34;;;12.27;73.91
27144;BME280;14672;50.250;8.312;2023-11-21T04:20:28;98253.69;;;12.31;74.24
27144;BME280;14672;50.250;8.312;2023-11-21T04:22:53;98247.81;;;12.34;73.38
27144;BME280;14672;50.250;8.312;2023-11-21T04:25:19;98240.94;;;12.26;74.03
27144;BME280;14672;50.250;8.312;2023-11-21T04:27:45;98250.38;;;12.32;73.57
27144;BME280;14672;50.250;8.312;2023-11-21T04:30:12;98252.19;;;12.20;74.09
27144;BME280;14672;50.250;8.312;2023-11-21T04:32:38;98246.44;;;12.30;73.68
27144;BME280;14672;50.250;8.312;2023-11-21T04:35:05;98248.31;;;12.33;73.27
27144;BME280;14672;50.250;8.312;2023-11-21T04:37:31;98255.47;;;12.28;73.67
27144;BME280;14672;50.250;8.312;2023-11-21T04:39:56;98266.38;;;12.30;73.46
27144;BME280;14672;50.250;8.312;2023-11-21T04:42:22;98259.38;;;12.31;73.10
27144;BME280;14672;50.250;8.312;2023-11-21T04:44:49;98263.63;;;12.35;72.99
27144;BME280;14672;50.250;8.312;2023-11-21T04:47:15;98277.09;;;12.35;72.75
27144;BME280;14672;50.250;8.312;2023-11-21T04:49:46;98271.38;;;12.35;73.37
27144;BME280;14672;50.250;8.312;2023-11-21T04:52:12;98278.53;;;12.30;72.74
27144;BME280;14672;50.250;8.312;2023-11-21T04:54:38;98281.84;;;12.38;72.88
27144;BME280;14672;50.250;8.312;2023-11-21T04:57:05;98291.22;;;12.29;73.03
27144;BME280;14672;50.250;8.312;2023-11-21T04:59:34;98289.94;;;12.30;72.89
27144;BME280;14672;50.250;8.312;2023-11-21T05:01:59;98300.47;;;12.39;72.35
27144;BME280;14672;50.250;8.312;2023-11-21T05:04:30;98295.75;;;12.36;72.98
27144;BME280;14672;50.250;8.312;2023-11-21T05:06:56;98296.72;;;12.33;72.90
27144;BME280;14672;50.250;8.312;2023-11-21T05:09:22;98302.25;;;12.36;72.66
27144;BME280;14672;50.250;8.312;2023-11-21T05:11:48;98309.38;;;12.32;72.81
27144;BME280;14672;50.250;8.312;2023-11-21T05:14:13;98310.91;;;12.42;73.09
27144;BME280;14672;50.250;8.312;2023-11-21T05:16:39;98307.28;;;12.41;72.83
27144;BME280;14672;50.250;8.312;2023-11-21T05:19:05;98310.00;;;12.36;72.93
27144;BME280;14672;50.250;8.312;2023-11-21T05:21:32;98322.31;;;12.42;73.09
27144;BME280;14672;50.250;8.312;2023-11-21T05:23:58;98313.63;;;12.36;72.85
27144;BME280;14672;50.250;8.312;2023-11-21T05:26:24;98316.16;;;12.34;73.17
27144;BME280;14672;50.250;8.312;2023-11-21T05:28:50;98324.59;;;12.29;73.73
27144;BME280;14672;50.250;8.312;2023-11-21T05:31:15;98324.25;;;12.36;72.74
27144;BME280;14672;50.250;8.312;2023-11-21T05:33:41;98329.75;;;12.39;72.73
27144;BME280;14672;50.250;8.312;2023-11-21T05:36:07;98333.44;;;12.31;73.05
27144;BME280;14672;50.250;8.312;2023-11-21T05:38:34;98335.03;;;12.32;72.86
27144;BME280;14672;50.250;8.312;2023-11-21T05:41:01;98342.50;;;12.29;73.34
27144;BME280;14672;50.250;8.312;2023-11-21T05:43:27;98357.13;;;12.13;74.31
27144;BME280;14672;50.250;8.312;2023-11-21T05:45:55;98352.16;;;12.22;73.65
27144;BME280;14672;50.250;8.312;2023-11-21T05:48:21;98358.47;;;12.27;73.52
27144;BME280;14672;50.250;8.312;2023-11-21T05:50:46;98355.75;;;12.32;73.24
27144;BME280;14672;50.250;8.312;2023-11-21T05:53:14;98362.78;;;12.22;73.04
27144;BME280;14672;50.250;8.312;2023-11-21T05:55:41;98363.25;;;12.20;73.16
27144;BME280;14672;50.250;8.312;2023-11-21T05:58:08;98358.78;;;12.29;73.28
27144;BME280;14672;50.250;8.312;2023-11-21T06:00:34;98364.66;;;12.25;72.91
27144;BME280;14672;50.250;8.312;2023-11-21T06:03:00;98370.13;;;12.38;73.08
27144;BME280;14672;50.250;8.312;2023-11-21T06:05:26;98367.81;;;12.27;73.24
27144;BME280;14672;50.250;8.312;2023-11-21T06:07:54;98364.84;;;12.21;73.03
27144;BME280;14672;50.250;8.312;2023-11-21T06:10:22;98374.28;;;12.28;73.08
27144;BME280;14672;50.250;8.312;2023-11-21T06:12:49;98379.19;;;12.27;73.48
27144;BME280;14672;50.250;8.312;2023-11-21T06:15:15;98388.88;;;12.20;73.57
27144;BME280;14672;50.250;8.312;2023-11-21T06:17:42;98392.34;;;12.24;73.33
27144;BME280;14672;50.250;8.312;2023-11-21T06:20:10;98404.72;;;12.21;73.61
27144;BME280;14672;50.250;8.312;2023-11-21T06:22:44;98405.31;;;12.26;73.44
27144;BME280;14672;50.250;8.312;2023-11-21T06:25:12;98399.81;;;12.22;73.39
27144;BME280;14672;50.250;8.312;2023-11-21T06:27:43;98400.91;;;12.15;73.41
27144;BME280;14672;50.250;8.312;2023-11-21T06:30:11;98403.91;;;12.21;73.35
27144;BME280;14672;50.250;8.312;2023-11-21T06:32:38;98401.38;;;12.23;73.19
27144;BME280;14672;50.250;8.312;2023-11-21T06:35:06;98406.25;;;12.22;73.33
27144;BME280;14672;50.250;8.312;2023-11-21T06:37:33;98402.94;;;12.24;73.38
27144;BME280;14672;50.250;8.312;2023-11-21T06:40:00;98417.00;;;12.28;73.14
27144;BME280;14672;50.250;8.312;2023-11-21T06:42:27;98416.72;;;12.26;73.21
27144;BME280;14672;50.250;8.312;2023-11-21T06:44:53;98427.78;;;12.23;72.99
27144;BME280;14672;50.250;8.312;2023-11-21T06:47:20;98424.16;;;12.23;73.17
27144;BME280;14672;50.250;8.312;2023-11-21T06:49:46;98432.88;;;12.19;73.28
27144;BME280;14672;50.250;8.312;2023-11-21T06:52:15;98444.91;;;12.14;73.33
27144;BME280;14672;50.250;8.312;2023-11-21T06:54:41;98447.72;;;12.23;73.46
27144;BME280;14672;50.250;8.312;2023-11-21T06:57:06;98452.31;;;12.21;73.07
27144;BME280;14672;50.250;8.312;2023-11-21T06:59:33;98455.66;;;12.19;73.51
27144;BME280;14672;50.250;8.312;2023-11-21T07:01:59;98448.69;;;12.20;73.27
27144;BME280;14672;50.250;8.312;2023-11-21T07:04:24;98455.47;;;12.23;72.81
27144;BME280;14672;50.250;8.312;2023-11-21T07:06:54;98466.69;;;12.27;73.13
27144;BME280;14672;50.250;8.312;2023-11-21T07:09:20;98456.25;;;12.23;73.27
27144;BME280;14672;50.250;8.312;2023-11-21T07:11:48;98460.53;;;12.28;72.99
27144;BME280;14672;50.250;8.312;2023-11-21T07:14:15;98465.94;;;12.26;72.83
27144;BME280;14672;50.250;8.312;2023-11-21T07:16:42;98471.75;;;12.22;72.92
27144;BME280;14672;50.250;8.312;2023-11-21T07:19:08;98473.34;;;12.23;72.62
27144;BME280;14672;50.250;8.312;2023-11-21T07:21:35;98480.94;;;12.27;73.07
27144;BME280;14672;50.250;8.312;2023-11-21T07:24:02;98486.63;;;12.27;73.37
27144;BME280;14672;50.250;8.312;2023-11-21T07:26:29;98484.72;;;12.33;72.80
27144;BME280;14672;50.250;8.312;2023-11-21T07:28:55;98490.25;;;12.27;72.45
27144;BME280;14672;50.250;8.312;2023-11-21T07:31:24;98490.16;;;12.21;72.85
27144;BME280;14672;50.250;8.312;2023-11-21T07:33:50;98494.56;;;12.22;73.10
27144;BME280;14672;50.250;8.312;2023-11-21T07:36:17;98496.75;;;12.28;72.68
27144;BME280;14672;50.250;8.312;2023-11-21T07:38:50;98495.16;;;12.27;72.75
27144;BME280;14672;50.250;8.312;2023-11-21T07:41:17;98500.88;;;12.27;72.15
27144;BME280;14672;50.250;8.312;2023-11-21T07:43:44;98500.41;;;12.28;71.87
27144;BME280;14672;50.250;8.312;2023-11-21T07:46:11;98504.34;;;12.31;71.35
27144;BME280;14672;50.250;8.312;2023-11-21T07:48:42;98512.25;;;12.36;71.75
27144;BME280;14672;50.250;8.312;2023-11-21T07:51:09;98511.63;;;12.32;71.84
27144;BME280;14672;50.250;8.312;2023-11-21T07:53:35;98509.38;;;12.36;71.87
27144;BME280;14672;50.250;8.312;2023-11-21T07:56:06;98517.94;;;12.36;71.41
27144;BME280;14672;50.250;8.312;2023-11-21T07:58:36;98523.63;;;12.36;71.12
27144;BME280;14672;50.250;8.312;2023-11-21T08:01:03;98527.56;;;12.38;71.13
27144;BME280;14672;50.250;8.312;2023-11-21T08:03:30;98528.03;;;12.46;70.79
27144;BME280;14672;50.250;8.312;2023-11-21T08:05:59;98531.19;;;12.48;70.65
27144;BME280;14672;50.250;8.312;2023-11-21T08:08:25;98531.03;;;12.42;70.96
27144;BME280;14672;50.250;8.312;2023-11-21T08:10:55;98537.34;;;12.46;71.51
27144;BME280;14672;50.250;8.312;2023-11-21T08:13:28;98548.94;;;12.43;71.46
27144;BME280;14672;50.250;8.312;2023-11-21T08:15:57;98543.28;;;12.34;72.04
27144;BME280;14672;50.250;8.312;2023-11-21T08:18:27;98555.41;;;12.43;71.88
27144;BME280;14672;50.250;8.312;2023-11-21T08:20:54;98556.69;;;12.42;71.41
27144;BME280;14672;50.250;8.312;2023-11-21T08:23:21;98553.69;;;12.37;71.42
27144;BME280;14672;50.250;8.312;2023-11-21T08:25:51;98557.66;;;12.39;71.37
27144;BME280;14672;50.250;8.312;2023-11-21T08:28:18;98569.19;;;12.45;71.28
27144;BME280;14672;50.250;8.312;2023-11-21T08:30:44;98564.75;;;12.44;71.16
27144;BME280;14672;50.250;8.312;2023-11-21T08:33:10;98577.56;;;12.48;71.01
27144;BME280;14672;50.250;8.312;2023-11-21T08:35:38;98578.72;;;12.33;71.35
27144;BME280;14672;50.250;8.312;2023-11-21T08:38:07;98579.94;;;12.50;71.12
27144;BME280;14672;50.250;8.312;2023-11-21T08:40:32;98576.78;;;12.48;71.49
27144;BME280;14672;50.250;8.312;2023-11-21T08:42:59;98577.56;;;12.48;71.38
27144;BME280;14672;50.250;8.312;2023-11-21T08:45:25;98583.16;;;12.34;71.60
27144;BME280;14672;50.250;8.312;2023-11-21T08:47:54;98582.00;;;12.49;71.03
27144;BME280;14672;50.250;8.312;2023-11-21T08:50:20;98582.94;;;12.55;71.26
27144;BME280;14672;50.250;8.312;2023-11-21T08:52:47;98586.41;;;12.50;70.95
27144;BME280;14672;50.250;8.312;2023-11-21T08:55:13;98580.88;;;12.47;71.49
27144;BME280;14672;50.250;8.312;2023-11-21T08:57:40;98581.66;;;12.56;71.10
27144;BME280;14672;50.250;8.312;2023-11-21T09:00:10;98581.19;;;12.58;71.26
27144;BME280;14672;50.250;8.312;2023-11-21T09:02:41;98588.63;;;12.55;71.38
27144;BME280;14672;50.250;8.312;2023-11-21T09:05:11;98590.66;;;12.64;71.09
27144;BME280;14672;50.250;8.312;2023-11-21T09:07:39;98593.69;;;12.60;71.64
27144;BME280;14672;50.250;8.312;2023-11-21T09:10:07;98601.28;;;12.63;71.06
27144;BME280;14672;50.250;8.312;2023-11-21T09:12:34;98601.41;;;12.69;71.30
27144;BME280;14672;50.250;8.312;2023-11-21T09:15:03;98605.53;;;12.68;70.80
27144;BME280;14672;50.250;8.312;2023-11-21T09:17:30;98607.25;;;12.75;70.50
27144;BME280;14672;50.250;8.312;2023-11-21T09:19:56;98606.31;;;12.68;70.61
27144;BME280;14672;50.250;8.312;2023-11-21T09:22:22;98609.63;;;12.76;70.40
27144;BME280;14672;50.250;8.312;2023-11-21T09:24:51;98612.94;;;12.75;70.36
27144;BME280;14672;50.250;8.312;2023-11-21T09:27:18;98616.25;;;12.82;70.46
27144;BME280;14672;50.250;8.312;2023-11-21T09:29:44;98622.63;;;12.77;70.53
27144;BME280;14672;50.250;8.312;2023-11-21T09:32:10;98627.97;;;12.84;70.40
27144;BME280;14672;50.250;8.312;2023-11-21T09:34:39;98631.63;;;12.76;70.42
27144;BME280;14672;50.250;8.312;2023-11-21T09:37:05;98631.00;;;12.81;70.28
27144;BME280;14672;50.250;8.312;2023-11-21T09:39:33;98626.03;;;12.90;69.86
27144;BME280;14672;50.250;8.312;2023-11-21T09:42:36;98627.28;;;12.98;70.26
27144;BME280;14672;50.250;8.312;2023-11-21T09:47:48;98642.47;;;13.04;69.65
27144;BME280;14672;50.250;8.312;2023-11-21T09:50:17;98630.75;;;13.11;69.28
27144;BME280;14672;50.250;8.312;2023-11-21T09:53:21;98640.25;;;13.18;69.96
27144;BME280;14672;50.250;8.312;2023-11-21T09:55:52;98643.72;;;13.22;69.53
27144;BME280;14672;50.250;8.312;2023-11-21T09:58:19;98639.88;;;13.25;69.05
27144;BME280;14672;50.250;8.312;2023-11-21T10:00:52;98650.47;;;13.33;69.75
27144;BME280;14672;50.250;8.312;2023-11-21T10:03:18;98639.53;;;13.32;69.03
27144;BME280;14672;50.250;8.312;2023-11-21T10:05:45;98643.91;;;13.42;69.27
27144;BME280;14672;50.250;8.312;2023-11-21T10:08:13;98648.72;;;13.59;68.89
27144;BME280;14672;50.250;8.312;2023-11-21T10:10:45;98649.56;;;13.51;68.58
27144;BME280;14672;50.250;8.312;2023-11-21T10:13:13;98655.22;;;13.60;68.36
27144;BME280;14672;50.250;8.312;2023-11-21T10:15:43;98650.41;;;13.66;68.54
27144;BME280;14672;50.250;8.312;2023-11-21T10:18:15;98657.66;;;13.76;68.17
27144;BME280;14672;50.250;8.312;2023-11-21T10:20:41;98666.22;;;13.76;67.81
27144;BME280;14672;50.250;8.312;2023-11-21T10:23:11;98657.06;;;13.72;67.72
27144;BME280;14672;50.250;8.312;2023-11-21T10:25:38;98660.47;;;13.85;67.85
27144;BME280;14672;50.250;8.312;2023-11-21T10:28:04;98661.66;;;13.93;67.60
27144;BME280;14672;50.250;8.312;2023-11-21T10:30:38;98664.22;;;13.91;67.52
27144;BME280;14672;50.250;8.312;2023-11-21T10:33:05;98669.38;;;14.02;67.45
27144;BME280;14672;50.250;8.312;2023-11-21T10:35:48;98665.66;;;14.10;67.92
27144;BME280;14672;50.250;8.312;2023-11-21T10:38:23;98670.56;;;14.10;66.66
27144;BME280;14672;50.250;8.312;2023-11-21T10:40:50;98669.50;;;14.07;65.87
27144;BME280;14672;50.250;8.312;2023-11-21T10:43:17;98666.94;;;14.09;66.16
27144;BME280;14672;50.250;8.312;2023-11-21T10:45:44;98668.41;;;14.05;66.80
27144;BME280;14672;50.250;8.312;2023-11-21T10:48:15;98666.56;;;14.17;67.18
27144;BME280;14672;50.250;8.312;2023-11-21T10:50:42;98662.13;;;14.16;66.24
27144;BME280;14672;50.250;8.312;2023-11-21T10:53:08;98661.16;;;14.19;66.19
27144;BME280;14672;50.250;8.312;2023-11-21T10:55:34;98677.91;;;14.26;66.29
27144;BME280;14672;50.250;8.312;2023-11-21T10:58:02;98674.22;;;14.10;66.05
27144;BME280;14672;50.250;8.312;2023-11-21T11:00:32;98675.44;;;14.19;66.18
27144;BME280;14672;50.250;8.312;2023-11-21T11:02:58;98676.72;;;14.18;65.86
27144;BME280;14672;50.250;8.312;2023-11-21T11:05:28;98681.22;;;14.09;65.80
27144;BME280;14672;50.250;8.312;2023-11-21T11:08:14;98678.34;;;14.09;66.94
27144;BME280;14672;50.250;8.312;2023-11-21T11:10:50;98682.75;;;14.20;65.57
27144;BME280;14672;50.250;8.312;2023-11-21T11:13:16;98672.19;;;14.26;65.26
27144;BME280;14672;50.250;8.312;2023-11-21T11:15:42;98662.34;;;14.27;65.67
27144;BME280;14672;50.250;8.312;2023-11-21T11:18:14;98673.19;;;14.23;65.89
27144;BME280;14672;50.250;8.312;2023-11-21T11:20:43;98671.84;;;14.33;65.51
27144;BME280;14672;50.250;8.312;2023-11-21T11:29:56;98682.16;;;14.30;64.63
27144;BME280;14672;50.250;8.312;2023-11-21T11:35:38;98676.59;;;14.36;64.15
27144;BME280;14672;50.250;8.312;2023-11-21T11:38:08;98680.84;;;14.40;64.04
27144;BME280;14672;50.250;8.312;2023-11-21T11:40:44;98679.28;;;14.39;64.15
27144;BME280;14672;50.250;8.312;2023-11-21T11:43:10;98688.91;;;14.42;64.23
27144;BME280;14672;50.250;8.312;2023-11-21T11:45:37;98681.34;;;14.39;63.72
27144;BME280;14672;50.250;8.312;2023-11-21T11:48:17;98682.41;;;14.41;64.24
27144;BME280;14672;50.250;8.312;2023-11-21T11:51:06;98682.59;;;14.38;63.21
27144;BME280;14672;50.250;8.312;2023-11-21T11:53:46;98676.72;;;14.18;63.87
27144;BME280;14672;50.250;8.312;2023-11-21T11:56:29;98688.31;;;14.38;63.55
27144;BME280;14672;50.250;8.312;2023-11-21T11:58:59;98677.03;;;14.34;63.02
27144;BME280;14672;50.250;8.312;2023-11-21T12:01:28;98685.19;;;14.36;62.82
27144;BME280;14672;50.250;8.312;2023-11-21T12:07:01;98683.72;;;14.40;61.66
27144;BME280;14672;50.250;8.312;2023-11-21T12:09:31;98679.75;;;14.38;61.50
27144;BME280;14672;50.250;8.312;2023-11-21T12:11:58;98690.13;;;14.50;61.25
27144;BME280;14672;50.250;8.312;2023-11-21T12:14:24;98684.31;;;14.44;62.34
27144;BME280;14672;50.250;8.312;2023-11-21T12:16:51;98688.13;;;14.41;62.38
27144;BME280;14672;50.250;8.312;2023-11-21T12:19:17;98686.97;;;14.48;61.65
27144;BME280;14672;50.250;8.312;2023-11-21T12:21:44;98698.09;;;14.46;62.45
27144;BME280;14672;50.250;8.312;2023-11-21T12:24:10;98699.69;;;14.47;61.86
27144;BME280;14672;50.250;8.312;2023-11-21T12:26:42;98697.91;;;14.49;61.81
27144;BME280;14672;50.250;8.312;2023-11-21T12:29:08;98699.88;;;14.43;61.53
27144;BME280;14672;50.250;8.312;2023-11-21T12:31:34;98700.06;;;14.40;62.29
27144;BME280;14672;50.250;8.312;2023-11-21T12:34:00;98706.56;;;14.40;62.49
27144;BME280;14672;50.250;8.312;2023-11-21T12:36:26;98708.44;;;14.43;62.28
27144;BME280;14672;50.250;8.312;2023-11-21T12:38:54;98703.22;;;14.42;62.50
27144;BME280;14672;50.250;8.312;2023-11-21T12:41:20;98709.06;;;14.47;62.30
27144;BME280;14672;50.250;8.312;2023-11-21T12:43:47;98714.88;;;14.53;61.93
27144;BME280;14672;50.250;8.312;2023-11-21T12:46:13;98706.59;;;14.55;61.99
27144;BME280;14672;50.250;8.312;2023-11-21T12:48:44;98715.44;;;14.42;62.39
27144;BME280;14672;50.250;8.312;2023-11-21T12:51:13;98710.50;;;14.96;61.22
27144;BME280;14672;50.250;8.312;2023-11-21T12:53:42;98711.66;;;14.89;61.10
27144;BME280;14672;50.250;8.312;2023-11-21T12:56:11;98718.28;;;14.81;61.08
27144;BME280;14672;50.250;8.312;2023-11-21T12:58:39;98709.38;;;14.64;61.75
27144;BME280;14672;50.250;8.312;2023-11-21T13:01:08;98712.97;;;14.88;61.52
27144;BME280;14672;50.250;8.312;2023-11-21T13:03:47;98710.97;;;15.09;61.28
27144;BME280;14672;50.250;8.312;2023-11-21T13:06:15;98713.34;;;15.11;61.40
27144;BME280;14672;50.250;8.312;2023-11-21T13:08:41;98720.16;;;14.98;61.11
27144;BME280;14672;50.250;8.312;2023-11-21T13:11:11;98717.09;;;14.87;61.74
27144;BME280;14672;50.250;8.312;2023-11-21T13:13:41;98719.84;;;14.82;61.81
27144;BME280;14672;50.250;8.312;2023-11-21T13:16:09;98725.84;;;14.69;61.82
27144;BME280;14672;50.250;8.312;2023-11-21T13:18:35;98725.34;;;14.56;62.09